Union Grove, Illinois
Current Conditions -  °F | °C
As of 9:35 PM on Saturday 20 Dec 2014 (Local Time) from KSQI Reporting Station
Overcast Overcast  
Wind Chill: 26°   Ceiling: 1600
Heat Index: 32°   Visibility: 6mi
Dew Point: 27°   Wind: 6mph
Humidity: 80%   Direction: 140°SE
Pressure: 30.22"   Gusts: NA
Location:  41.8285°N, 89.9656°W
Report Text: KSQI 210335Z 14005KT 6SM BKN016 OVC030 00/M03 A3022 RMK AO1
Loading
Personal Weather Stations






























Interactive Weather Map New forecast layout! Learn more

10-Day Weather Forecast

Advertisements
Track Severe Weather on mobile